Time;durP1;ratioP1;P1;durP2;ratioP2;P2;SDS_P1;SDS_P2;PMS_P1;PMS_P2;Temp;Humidity;BMP_temperature;BMP_pressure;BME280_temperature;BME280_humidity;BME280_pressure;Samples;Min_cycle;Max_cycle;Signal;HPM_P1;HPM_P2
2022/03/24 00:00:42;;;;;;;38.03;19.07;;;;;;;5.07;49.62;101186.91;4203408;28;20667;-72
2022/03/24 00:03:08;;;;;;;47.27;20.23;;;;;;;5.05;49.67;101191.44;4202964;28;20439;-72
2022/03/24 00:05:38;;;;;;;44.83;20.73;;;;;;;4.89;50.24;101195.91;4206665;28;20228;-73
2022/03/24 00:08:06;;;;;;;42.67;20.47;;;;;;;4.89;50.67;101190.63;4203122;28;23351;-74
2022/03/24 00:10:32;;;;;;;41.67;20.07;;;;;;;4.81;50.85;101190.25;4201392;28;20239;-72
2022/03/24 00:12:59;;;;;;;45.53;20.00;;;;;;;4.78;51.15;101190.44;4201235;28;20235;-73
2022/03/24 00:15:25;;;;;;;46.10;20.50;;;;;;;4.76;51.25;101192.31;4189597;28;20438;-73
2022/03/24 00:17:52;;;;;;;46.43;20.53;;;;;;;4.67;51.66;101187.56;4203626;28;20297;-73
2022/03/24 00:20:19;;;;;;;48.03;20.30;;;;;;;4.69;51.83;101189.16;4170004;28;21233;-74
2022/03/24 00:22:46;;;;;;;44.90;19.57;;;;;;;4.63;52.39;101192.16;4201127;28;20343;-73
2022/03/24 00:25:13;;;;;;;47.83;22.10;;;;;;;4.51;52.43;101188.44;4179414;28;20299;-73
2022/03/24 00:27:40;;;;;;;50.33;22.20;;;;;;;4.52;52.52;101187.50;4181768;28;20236;-76
2022/03/24 00:30:08;;;;;;;51.00;21.90;;;;;;;4.49;53.27;101187.66;4190991;28;20238;-75
2022/03/24 00:32:36;;;;;;;47.03;20.73;;;;;;;4.45;52.94;101188.81;4191564;28;21385;-75
2022/03/24 00:35:03;;;;;;;52.10;21.43;;;;;;;4.45;53.38;101194.06;4186879;28;25717;-73
2022/03/24 00:37:31;;;;;;;44.27;21.97;;;;;;;4.42;53.79;101188.94;4200993;28;21458;-74
2022/03/24 00:40:06;;;;;;;46.20;21.17;;;;;;;4.33;53.69;101189.47;4199233;28;21802;-74
2022/03/24 00:42:36;;;;;;;46.23;20.90;;;;;;;4.32;53.47;101193.06;4209627;28;20244;-73
2022/03/24 00:45:05;;;;;;;49.27;20.77;;;;;;;4.12;54.44;101191.50;4176281;28;20236;-72
2022/03/24 00:47:34;;;;;;;49.60;21.17;;;;;;;3.92;54.92;101185.56;4183739;28;22890;-72
2022/03/24 00:50:07;;;;;;;44.67;21.83;;;;;;;3.96;55.02;101186.25;4180766;28;25569;-73
2022/03/24 00:52:40;;;;;;;43.90;20.20;;;;;;;3.98;54.99;101184.38;4187699;28;20285;-73
2022/03/24 00:55:13;;;;;;;37.20;19.60;;;;;;;4.08;54.57;101184.75;4186106;28;20275;-74
2022/03/24 00:57:40;;;;;;;46.43;19.50;;;;;;;4.06;54.30;101190.09;4204451;28;22191;-74
2022/03/24 01:00:09;;;;;;;47.20;20.17;;;;;;;3.94;55.10;101182.88;4187158;28;21011;-73
2022/03/24 01:02:38;;;;;;;42.30;20.30;;;;;;;3.92;55.39;101184.72;4191369;28;20232;-73
2022/03/24 01:05:06;;;;;;;48.97;21.80;;;;;;;3.90;55.64;101189.22;4208811;28;21565;-73
2022/03/24 01:07:36;;;;;;;44.90;21.30;;;;;;;3.88;55.77;101184.03;4208635;28;20269;-74
2022/03/24 01:10:04;;;;;;;45.47;20.43;;;;;;;3.94;55.62;101177.59;4178749;28;20235;-73
2022/03/24 01:12:30;;;;;;;41.47;19.57;;;;;;;3.89;55.84;101182.28;4178576;28;20225;-72
2022/03/24 01:14:57;;;;;;;46.03;20.70;;;;;;;3.76;55.81;101179.44;4202739;28;20526;-73
2022/03/24 01:17:26;;;;;;;46.87;20.93;;;;;;;3.66;56.19;101179.09;4192002;28;21690;-72
2022/03/24 01:19:53;;;;;;;42.60;19.80;;;;;;;3.66;56.50;101176.44;4206517;28;21842;-74
2022/03/24 01:22:19;;;;;;;50.60;21.37;;;;;;;3.58;56.78;101178.63;4202859;28;20757;-72
2022/03/24 01:24:46;;;;;;;43.90;20.73;;;;;;;3.48;57.31;101173.00;4200440;28;20795;-73
2022/03/24 01:27:14;;;;;;;47.60;21.27;;;;;;;3.44;57.40;101176.75;4192601;28;20236;-75
2022/03/24 01:29:41;;;;;;;45.57;20.50;;;;;;;3.33;58.17;101179.94;4200134;28;20239;-72
2022/03/24 01:32:08;;;;;;;44.33;20.40;;;;;;;3.42;57.97;101180.38;4184001;28;22693;-73
2022/03/24 01:34:35;;;;;;;49.37;21.57;;;;;;;3.26;58.68;101178.56;4167521;28;20237;-72
2022/03/24 01:37:01;;;;;;;44.53;21.07;;;;;;;3.24;58.67;101169.06;4199310;28;20236;-73
2022/03/24 01:39:29;;;;;;;41.73;20.27;;;;;;;3.28;58.54;101176.69;4214960;28;20252;-71
2022/03/24 01:41:56;;;;;;;48.17;22.73;;;;;;;3.13;59.05;101172.22;4203344;28;20641;-70
2022/03/24 01:44:23;;;;;;;49.53;22.57;;;;;;;3.16;59.44;101174.69;4191506;28;20299;-69
2022/03/24 01:46:55;;;;;;;45.23;21.33;;;;;;;3.17;59.34;101173.78;4201507;28;20235;-73
2022/03/24 01:49:22;;;;;;;43.90;20.40;;;;;;;3.18;59.32;101170.19;4189040;28;20251;-71
2022/03/24 01:51:48;;;;;;;45.83;21.17;;;;;;;3.08;59.63;101166.34;4203667;28;20237;-72
2022/03/24 01:54:15;;;;;;;43.87;20.47;;;;;;;3.04;59.70;101168.28;4201152;28;20231;-73
2022/03/24 01:56:43;;;;;;;44.47;21.13;;;;;;;3.11;59.78;101171.44;4183641;28;20236;-72
2022/03/24 01:59:14;;;;;;;39.73;20.53;;;;;;;3.02;60.12;101171.91;4184805;28;25551;-72
2022/03/24 02:01:41;;;;;;;43.83;20.70;;;;;;;3.01;60.00;101170.22;4189793;28;20286;-71
2022/03/24 02:04:08;;;;;;;39.43;19.93;;;;;;;3.03;60.12;101168.38;4189347;28;20240;-71
2022/03/24 02:06:35;;;;;;;40.40;20.53;;;;;;;3.04;60.03;101167.44;4200177;28;20337;-72
2022/03/24 02:09:05;;;;;;;49.00;21.37;;;;;;;3.03;60.28;101177.09;4185644;28;20229;-70
2022/03/24 02:11:33;;;;;;;46.33;20.87;;;;;;;2.99;60.23;101172.09;4198446;28;21853;-71
2022/03/24 02:14:01;;;;;;;44.83;20.73;;;;;;;2.98;60.37;101175.66;4198983;28;25244;-71
2022/03/24 02:16:36;;;;;;;50.70;22.03;;;;;;;2.91;61.04;101170.69;4189369;28;20297;-71
2022/03/24 02:19:16;;;;;;;53.63;23.47;;;;;;;2.82;61.15;101171.16;4200476;28;21419;-70
2022/03/24 02:21:44;;;;;;;49.83;22.43;;;;;;;2.84;60.93;101168.47;4197595;28;20265;-72
2022/03/24 02:24:13;;;;;;;44.00;21.90;;;;;;;2.79;61.37;101171.31;4186068;28;22504;-72
2022/03/24 02:26:42;;;;;;;54.43;22.43;;;;;;;2.79;61.52;101171.31;4212946;28;21398;-72
2022/03/24 02:29:10;;;;;;;48.80;22.47;;;;;;;2.69;62.14;101170.06;4211430;28;22295;-72
2022/03/24 02:31:39;;;;;;;48.83;23.80;;;;;;;2.67;61.89;101179.78;4207461;28;20303;-71
2022/03/24 02:36:54;;;;;;;49.83;22.83;;;;;;;2.64;62.30;101175.53;4211427;28;20240;-71
2022/03/24 02:39:21;;;;;;;52.53;23.50;;;;;;;2.61;62.37;101177.50;4206755;28;20281;-71
2022/03/24 02:41:52;;;;;;;47.90;23.23;;;;;;;2.53;62.91;101175.25;4203504;28;21147;-72
2022/03/24 02:44:23;;;;;;;53.77;25.13;;;;;;;2.46;63.18;101174.69;4190416;28;20232;-71
2022/03/24 02:46:51;;;;;;;50.20;23.53;;;;;;;2.45;63.93;101178.22;4204756;28;20223;-71
2022/03/24 02:49:20;;;;;;;49.90;23.33;;;;;;;2.48;63.65;101178.09;4199349;28;20236;-71
2022/03/24 02:51:46;;;;;;;51.60;24.00;;;;;;;2.42;63.81;101181.00;4172520;28;23418;-72
2022/03/24 02:54:13;;;;;;;50.13;23.53;;;;;;;2.42;63.64;101178.38;4201873;28;20254;-72
2022/03/24 02:56:42;;;;;;;53.23;24.27;;;;;;;2.37;64.35;101185.63;4200531;28;20233;-71
2022/03/24 02:59:10;;;;;;;52.27;23.77;;;;;;;2.42;63.64;101193.31;4201565;28;20255;-70
2022/03/24 03:01:38;;;;;;;51.87;23.63;;;;;;;2.35;64.28;101192.75;4189676;28;20412;-74
2022/03/24 03:04:08;;;;;;;50.90;23.90;;;;;;;2.19;65.16;101186.50;4186524;28;23068;-72
2022/03/24 03:06:35;;;;;;;53.00;25.50;;;;;;;2.19;64.80;101192.63;4196897;28;20707;-73
2022/03/24 03:09:03;;;;;;;49.70;24.40;;;;;;;2.13;65.55;101185.03;4188739;28;20229;-71
2022/03/24 03:11:33;;;;;;;59.67;26.10;;;;;;;2.10;65.35;101186.00;4201661;28;21575;-72
2022/03/24 03:14:00;;;;;;;57.00;25.63;;;;;;;2.10;65.43;101187.78;4198201;28;20305;-72
2022/03/24 03:16:27;;;;;;;55.50;24.63;;;;;;;2.04;65.57;101194.19;4195635;28;20304;-70
2022/03/24 03:18:55;;;;;;;55.37;25.47;;;;;;;2.02;65.53;101189.94;4189469;28;20706;-71
2022/03/24 03:21:22;;;;;;;50.93;24.37;;;;;;;1.95;66.25;101194.63;4198011;28;21957;-71
2022/03/24 03:23:49;;;;;;;59.20;24.90;;;;;;;1.91;66.56;101190.44;4202638;28;20235;-71
2022/03/24 03:26:17;;;;;;;55.87;26.23;;;;;;;1.87;66.63;101196.72;4207900;28;21540;-72
2022/03/24 03:28:44;;;;;;;59.03;26.50;;;;;;;1.91;66.62;101193.06;4186029;28;21953;-73
2022/03/24 03:31:11;;;;;;;56.93;25.53;;;;;;;1.92;66.79;101200.03;4199965;28;22074;-72
2022/03/24 03:33:38;;;;;;;59.50;26.83;;;;;;;1.92;67.02;101199.16;4190871;28;21250;-69
2022/03/24 03:36:05;;;;;;;54.17;26.43;;;;;;;1.84;67.18;101202.13;4190074;28;20238;-71
2022/03/24 03:38:33;;;;;;;54.67;24.90;;;;;;;1.81;66.99;101202.28;4201964;28;20225;-71
2022/03/24 03:41:02;;;;;;;52.70;26.37;;;;;;;1.71;67.68;101208.84;4200317;28;22521;-70
2022/03/24 03:43:29;;;;;;;55.13;25.23;;;;;;;1.59;67.76;101210.25;4207163;28;22872;-70
2022/03/24 03:45:56;;;;;;;54.30;26.37;;;;;;;1.39;68.55;101200.66;4197285;28;20248;-70
2022/03/24 03:48:22;;;;;;;56.10;26.93;;;;;;;1.19;68.90;101204.97;4182650;28;20267;-72
2022/03/24 03:50:49;;;;;;;66.37;29.77;;;;;;;0.99;70.50;101207.63;4202105;28;20263;-74
2022/03/24 03:53:16;;;;;;;77.27;33.10;;;;;;;0.78;72.49;101209.34;4192609;28;20228;-70
2022/03/24 03:55:43;;;;;;;104.73;43.77;;;;;;;0.73;73.13;101213.94;4200815;28;20475;-75
2022/03/24 03:58:11;;;;;;;97.83;43.40;;;;;;;0.75;72.24;101215.56;4186674;28;21592;-71
2022/03/24 04:00:52;;;;;;;107.30;42.70;;;;;;;0.72;72.55;101214.84;4182181;28;21807;-71
2022/03/24 04:03:27;;;;;;;97.47;40.00;;;;;;;0.62;73.06;101219.59;4201189;28;21696;-70
2022/03/24 04:05:58;;;;;;;89.37;37.10;;;;;;;0.50;73.90;101214.88;4206540;28;20367;-70
2022/03/24 04:08:27;;;;;;;90.50;37.47;;;;;;;0.40;75.15;101220.47;4188319;28;20247;-70
2022/03/24 04:10:55;;;;;;;83.07;35.00;;;;;;;0.45;75.13;101220.28;4203866;28;22285;-72
2022/03/24 04:13:22;;;;;;;86.50;35.73;;;;;;;0.52;74.21;101220.91;4202454;28;20232;-73
2022/03/24 04:15:50;;;;;;;79.13;33.97;;;;;;;0.51;74.18;101221.78;4187784;28;20557;-72
2022/03/24 04:18:17;;;;;;;81.70;33.40;;;;;;;0.41;75.17;101227.38;4204600;28;23531;-71
2022/03/24 04:20:44;;;;;;;81.37;34.30;;;;;;;0.45;75.10;101222.06;4203551;28;20340;-72
2022/03/24 04:23:11;;;;;;;78.97;33.13;;;;;;;0.48;74.79;101228.00;4199752;28;22243;-70
2022/03/24 04:25:38;;;;;;;73.30;32.10;;;;;;;0.51;74.91;101222.63;4211928;28;21261;-71
2022/03/24 04:28:05;;;;;;;80.30;33.70;;;;;;;0.40;75.51;101228.31;4206160;28;20236;-71
2022/03/24 04:30:33;;;;;;;74.37;32.33;;;;;;;0.50;75.09;101230.56;4205793;28;20232;-72
2022/03/24 04:33:00;;;;;;;81.53;35.37;;;;;;;0.58;74.17;101225.88;4192331;28;23067;-71
2022/03/24 04:35:27;;;;;;;82.23;33.43;;;;;;;0.58;74.18;101233.72;4205392;28;25754;-70
2022/03/24 04:37:54;;;;;;;80.00;34.87;;;;;;;0.62;73.95;101232.69;4199791;28;20240;-70
2022/03/24 04:40:21;;;;;;;78.07;32.90;;;;;;;0.58;74.22;101228.50;4220061;28;23132;-71
2022/03/24 04:42:50;;;;;;;78.00;33.13;;;;;;;0.46;75.37;101232.44;4211423;28;22147;-71
2022/03/24 04:45:17;;;;;;;82.27;32.47;;;;;;;0.49;75.09;101239.31;4221373;28;20236;-71
2022/03/24 04:47:45;;;;;;;68.70;32.17;;;;;;;0.25;76.81;101239.38;4258198;28;20241;-71
2022/03/24 04:50:13;;;;;;;79.77;30.97;;;;;;;0.22;77.38;101236.03;4212222;28;20245;-71
2022/03/24 04:52:41;;;;;;;71.83;32.27;;;;;;;0.20;77.65;101233.47;4252552;28;20533;-70
2022/03/24 04:55:08;;;;;;;72.37;32.20;;;;;;;0.34;77.17;101232.94;4222107;28;20225;-70
2022/03/24 04:57:36;;;;;;;76.90;33.03;;;;;;;0.31;77.49;101230.44;4206547;28;20236;-71
2022/03/24 05:00:04;;;;;;;78.27;33.47;;;;;;;0.34;77.33;101225.94;4212082;28;20310;-72
2022/03/24 05:02:31;;;;;;;75.60;31.87;;;;;;;0.37;77.01;101236.28;4198554;28;22290;-71
2022/03/24 05:04:58;;;;;;;75.20;33.00;;;;;;;0.52;76.70;101231.38;4199956;28;20304;-70
2022/03/24 05:07:24;;;;;;;74.53;33.53;;;;;;;0.60;76.60;101229.28;4200229;28;20239;-71
2022/03/24 05:09:52;;;;;;;77.33;32.40;;;;;;;0.60;76.11;101224.03;4203010;28;20232;-71
2022/03/24 05:12:19;;;;;;;72.50;31.57;;;;;;;0.62;76.46;101230.06;4209363;28;21525;-71
2022/03/24 05:14:46;;;;;;;78.43;33.63;;;;;;;0.59;75.76;101232.84;4193133;28;20294;-71
2022/03/24 05:17:13;;;;;;;76.83;32.77;;;;;;;0.63;75.77;101237.00;4193516;28;20854;-72
2022/03/24 05:19:40;;;;;;;81.00;33.67;;;;;;;0.58;76.03;101238.97;4212709;28;20704;-71
2022/03/24 05:22:06;;;;;;;79.10;33.13;;;;;;;0.56;76.81;101236.44;4210492;28;22328;-71
2022/03/24 05:24:33;;;;;;;86.27;34.47;;;;;;;0.68;76.25;101239.44;4202787;28;20258;-71
2022/03/24 05:27:00;;;;;;;80.67;34.80;;;;;;;0.61;76.94;101237.09;4205140;28;22384;-72
2022/03/24 05:29:26;;;;;;;84.53;35.47;;;;;;;0.91;76.43;101246.38;4203470;28;20714;-70
2022/03/24 05:31:53;;;;;;;75.37;33.87;;;;;;;1.12;75.47;101245.47;4204647;28;20545;-70
2022/03/24 05:34:20;;;;;;;78.93;33.93;;;;;;;1.08;74.36;101245.66;4206397;28;20228;-71
2022/03/24 05:36:46;;;;;;;83.93;35.47;;;;;;;1.01;75.61;101247.72;4210285;28;20235;-74
2022/03/24 05:39:13;;;;;;;92.70;34.90;;;;;;;0.92;75.84;101242.84;4205155;28;20407;-71
2022/03/24 05:41:41;;;;;;;82.43;35.10;;;;;;;0.95;76.27;101240.09;4200159;28;21693;-69
2022/03/24 05:44:07;;;;;;;73.77;33.33;;;;;;;1.02;75.42;101239.75;4193363;28;20307;-72
2022/03/24 05:46:45;;;;;;;81.13;34.97;;;;;;;0.98;76.49;101247.81;4195166;28;20267;-72
2022/03/24 05:49:14;;;;;;;80.20;34.83;;;;;;;1.06;76.17;101245.75;4179739;28;20306;-72
2022/03/24 05:51:43;;;;;;;79.73;33.83;;;;;;;1.15;75.62;101249.75;4198670;28;20476;-72
2022/03/24 05:54:11;;;;;;;81.70;34.47;;;;;;;1.33;75.58;101253.34;4222700;28;20265;-71
2022/03/24 05:56:38;;;;;;;79.83;34.50;;;;;;;1.41;74.77;101246.03;4236988;28;20297;-71
2022/03/24 05:59:05;;;;;;;72.07;33.80;;;;;;;1.40;74.97;101242.53;4214045;28;20252;-71
2022/03/24 06:01:33;;;;;;;78.50;34.37;;;;;;;1.56;74.35;101255.81;4196362;28;22157;-71
2022/03/24 06:04:00;;;;;;;86.37;35.77;;;;;;;1.44;74.69;101245.88;4190509;28;22942;-73
2022/03/24 06:06:27;;;;;;;85.30;36.03;;;;;;;1.60;74.71;101253.94;4174844;28;20291;-74
2022/03/24 06:08:58;;;;;;;79.17;35.27;;;;;;;1.65;74.81;101251.97;4207293;28;20332;-70
2022/03/24 06:11:24;;;;;;;78.27;34.17;;;;;;;1.85;74.89;101253.69;4209465;28;23813;-71
2022/03/24 06:13:51;;;;;;;77.13;35.13;;;;;;;1.95;73.40;101251.53;4210943;28;20298;-74
2022/03/24 06:16:19;;;;;;;80.17;33.00;;;;;;;2.04;72.85;101257.19;4193024;28;20243;-69
2022/03/24 06:18:45;;;;;;;79.87;33.73;;;;;;;1.98;73.01;101257.47;4192288;28;21119;-69
2022/03/24 06:21:13;;;;;;;82.57;34.77;;;;;;;1.99;73.53;101258.31;4192522;28;22084;-69
2022/03/24 06:23:40;;;;;;;78.53;35.57;;;;;;;1.96;73.58;101256.69;4182579;28;20256;-68
2022/03/24 06:26:08;;;;;;;77.43;33.53;;;;;;;2.27;72.85;101257.88;4193750;28;20247;-67
2022/03/24 06:28:35;;;;;;;85.17;36.20;;;;;;;2.30;72.69;101263.03;4215351;28;21225;-66
2022/03/24 06:31:02;;;;;;;81.13;34.90;;;;;;;2.45;72.08;101267.53;4205845;28;20232;-66
2022/03/24 06:33:29;;;;;;;76.73;34.63;;;;;;;2.42;72.26;101267.69;4220478;28;20291;-70
2022/03/24 06:35:55;;;;;;;80.37;34.57;;;;;;;2.36;72.21;101267.97;4206644;28;20243;-66
2022/03/24 06:38:23;;;;;;;74.40;34.90;;;;;;;2.69;71.66;101259.41;4223768;28;21107;-69
2022/03/24 06:40:49;;;;;;;73.93;34.10;;;;;;;3.07;70.93;101262.81;4203408;28;20229;-74
2022/03/24 06:43:16;;;;;;;81.60;33.93;;;;;;;3.18;69.74;101262.25;4190255;28;20321;-74
2022/03/24 06:45:42;;;;;;;76.33;35.40;;;;;;;3.29;69.38;101270.44;4206441;28;21445;-67
2022/03/24 06:48:09;;;;;;;80.57;34.27;;;;;;;3.62;68.58;101272.28;4212406;28;20258;-70
2022/03/24 06:50:36;;;;;;;71.40;33.37;;;;;;;3.91;66.89;101280.44;4208856;28;20302;-68
2022/03/24 06:53:04;;;;;;;71.03;32.50;;;;;;;3.86;66.80;101274.56;4202109;28;21955;-71
2022/03/24 06:55:31;;;;;;;82.80;33.53;;;;;;;3.74;66.43;101274.28;4206722;28;20231;-72
2022/03/24 06:57:57;;;;;;;70.53;33.53;;;;;;;3.89;66.71;101279.69;4208319;28;20232;-70
2022/03/24 07:00:24;;;;;;;70.40;33.43;;;;;;;4.10;66.18;101286.44;4189542;28;20232;-71
2022/03/24 07:02:51;;;;;;;74.50;34.70;;;;;;;4.41;65.46;101282.97;4201699;28;21315;-70
2022/03/24 07:05:17;;;;;;;72.37;34.93;;;;;;;4.33;64.80;101284.31;4211201;28;20442;-67
2022/03/24 07:07:44;;;;;;;70.57;34.60;;;;;;;4.51;64.40;101288.59;4212301;28;21329;-69
2022/03/24 07:10:12;;;;;;;82.83;35.30;;;;;;;4.69;63.79;101293.78;4268856;28;20393;-67
2022/03/24 07:12:38;;;;;;;75.10;33.13;;;;;;;5.01;62.34;101295.44;4295446;28;20241;-68
2022/03/24 07:15:08;;;;;;;58.80;28.97;;;;;;;5.15;61.28;101296.41;4242533;28;20237;-69
2022/03/24 07:17:35;;;;;;;52.00;26.33;;;;;;;5.33;59.49;101299.78;4210964;28;20291;-68
2022/03/24 07:20:03;;;;;;;57.83;26.90;;;;;;;5.79;58.73;101295.25;4214623;28;21733;-69
2022/03/24 07:22:34;;;;;;;82.73;34.10;;;;;;;6.50;56.16;101294.38;4229372;28;20239;-66
2022/03/24 07:25:02;;;;;;;58.60;28.27;;;;;;;7.28;52.44;101306.13;4208759;28;20989;-70
2022/03/24 07:27:32;;;;;;;51.97;24.70;;;;;;;8.81;47.58;101311.38;4196719;28;20229;-68
2022/03/24 07:30:00;;;;;;;39.30;18.30;;;;;;;11.87;38.51;101324.47;4243668;28;20253;-69
2022/03/24 07:32:27;;;;;;;39.57;19.57;;;;;;;14.74;32.05;101338.31;4238602;28;21648;-70
2022/03/24 07:34:54;;;;;;;38.83;19.07;;;;;;;17.46;28.03;101347.84;4189116;28;20238;-66
2022/03/24 07:37:20;;;;;;;41.80;21.87;;;;;;;20.37;23.60;101360.31;4238767;28;20233;-64
2022/03/24 07:39:48;;;;;;;38.90;21.17;;;;;;;21.87;21.93;101359.72;4263413;28;21040;-69
2022/03/24 07:42:15;;;;;;;36.27;18.73;;;;;;;20.83;20.93;101357.41;4198790;28;21576;-70
2022/03/24 07:44:41;;;;;;;37.23;21.93;;;;;;;21.96;20.33;101357.66;4246905;28;20314;-73
2022/03/24 07:47:08;;;;;;;41.80;22.53;;;;;;;22.30;19.85;101363.16;4201811;28;20229;-73
2022/03/24 07:49:35;;;;;;;50.83;24.97;;;;;;;23.23;17.90;101364.59;4217954;28;21156;-73
2022/03/24 07:52:09;;;;;;;37.40;21.70;;;;;;;22.08;18.88;101358.81;4240729;28;20240;-74
2022/03/24 07:55:02;;;;;;;34.73;20.63;;;;;;;20.59;20.86;101340.47;4183189;28;20555;-72
2022/03/24 07:57:30;;;;;;;34.23;19.77;;;;;;;23.54;18.31;101356.69;4202607;28;21241;-72
2022/03/24 07:59:58;;;;;;;42.77;21.33;;;;;;;23.73;17.54;101354.19;4206261;28;20239;-72
2022/03/24 08:02:27;;;;;;;35.57;18.73;;;;;;;24.18;16.92;101351.63;4189405;28;20939;-68
2022/03/24 08:04:56;;;;;;;39.13;21.77;;;;;;;24.45;16.50;101349.69;4222313;28;21233;-71
2022/03/24 08:07:23;;;;;;;36.07;18.53;;;;;;;24.10;16.17;101357.31;4220318;28;20261;-68
2022/03/24 08:09:50;;;;;;;31.63;17.73;;;;;;;22.79;18.06;101346.91;4229551;28;20673;-71
2022/03/24 08:12:17;;;;;;;43.50;23.57;;;;;;;22.94;17.71;101351.13;4216067;28;22661;-71
2022/03/24 08:14:44;;;;;;;28.77;15.80;;;;;;;23.33;17.36;101349.56;4213957;28;20426;-70
2022/03/24 08:17:13;;;;;;;37.47;19.93;;;;;;;25.32;15.34;101362.91;4240924;28;20262;-69
2022/03/24 08:19:42;;;;;;;28.03;14.47;;;;;;;24.60;15.53;101357.59;4272637;28;20237;-76
2022/03/24 08:22:09;;;;;;;23.03;13.73;;;;;;;25.64;14.76;101364.56;4327140;28;20291;-74
2022/03/24 08:24:35;;;;;;;24.83;14.93;;;;;;;26.84;13.34;101357.03;4332781;28;20237;-77
2022/03/24 08:27:03;;;;;;;30.20;15.73;;;;;;;21.96;17.61;101336.84;4275810;28;20296;-72
2022/03/24 08:29:29;;;;;;;28.80;15.27;;;;;;;20.83;19.43;101330.34;4242574;28;20236;-69
2022/03/24 08:31:56;;;;;;;32.27;16.43;;;;;;;19.75;20.58;101321.78;4233677;28;21182;-69
2022/03/24 08:34:27;;;;;;;26.67;16.17;;;;;;;18.58;22.46;101312.97;4213680;28;20484;-71
2022/03/24 08:36:56;;;;;;;27.73;15.97;;;;;;;16.33;25.76;101301.69;4214838;28;20362;-73
2022/03/24 08:39:22;;;;;;;30.73;14.40;;;;;;;15.79;26.16;101296.53;4224915;28;20232;-79
2022/03/24 08:41:49;;;;;;;25.20;14.80;;;;;;;14.31;28.74;101288.91;4234280;28;21151;-72
2022/03/24 08:44:15;;;;;;;28.43;14.00;;;;;;;13.21;30.02;101283.25;4200351;28;20239;-74
2022/03/24 08:46:42;;;;;;;26.23;14.53;;;;;;;12.78;31.53;101281.81;4246672;28;20581;-74
2022/03/24 08:49:09;;;;;;;23.70;14.03;;;;;;;13.06;31.92;101286.34;4213507;28;21348;-72
2022/03/24 08:51:35;;;;;;;31.13;15.47;;;;;;;12.59;32.10;101270.09;4199001;28;21442;-69
2022/03/24 08:54:02;;;;;;;29.40;14.77;;;;;;;11.86;33.59;101273.91;4259826;28;22498;-77
2022/03/24 08:56:29;;;;;;;30.60;14.07;;;;;;;11.59;35.11;101268.16;4232528;28;20240;-69
2022/03/24 08:58:56;;;;;;;28.10;12.80;;;;;;;12.17;33.46;101267.59;4236712;28;20270;-71
2022/03/24 09:01:24;;;;;;;25.90;14.13;;;;;;;11.75;34.34;101267.69;4242263;28;21545;-75
2022/03/24 09:03:52;;;;;;;30.63;14.43;;;;;;;11.66;35.00;101265.81;4279321;28;20454;-74
2022/03/24 09:06:20;;;;;;;28.93;14.63;;;;;;;11.88;35.39;101267.47;4259131;28;22136;-71
2022/03/24 09:08:46;;;;;;;25.67;13.70;;;;;;;11.54;35.54;101254.38;4188504;28;20392;-73
2022/03/24 09:11:13;;;;;;;25.93;13.20;;;;;;;12.03;34.66;101265.28;4209131;28;20880;-71
2022/03/24 09:13:40;;;;;;;29.93;11.63;;;;;;;11.86;34.25;101269.41;4225428;28;20233;-69
2022/03/24 09:16:07;;;;;;;25.87;13.97;;;;;;;12.34;33.19;101273.25;4221799;28;20239;-69
2022/03/24 09:18:34;;;;;;;25.07;13.87;;;;;;;12.16;33.76;101265.91;4215708;28;20307;-70
2022/03/24 09:21:01;;;;;;;29.47;12.30;;;;;;;11.69;34.63;101262.88;4255648;28;22558;-69
2022/03/24 09:23:29;;;;;;;20.80;11.17;;;;;;;11.59;34.85;101270.81;4223774;28;20364;-70
2022/03/24 09:25:56;;;;;;;16.77;8.10;;;;;;;10.92;35.07;101258.66;4212831;28;21970;-72
2022/03/24 09:28:43;;;;;;;16.03;8.47;;;;;;;10.88;35.07;101262.53;4225696;28;20331;-69
2022/03/24 09:31:09;;;;;;;13.87;8.00;;;;;;;11.11;34.95;101259.81;4220017;28;20220;-71
2022/03/24 09:33:36;;;;;;;16.43;8.27;;;;;;;11.47;33.78;101253.22;4235162;28;20751;-68
2022/03/24 09:36:03;;;;;;;11.90;7.17;;;;;;;11.36;33.59;101264.75;4204226;28;22528;-68
2022/03/24 09:38:29;;;;;;;16.17;7.87;;;;;;;11.58;32.92;101254.94;4226661;28;20294;-68
2022/03/24 09:40:56;;;;;;;13.73;7.17;;;;;;;11.68;33.12;101253.16;4208195;28;22182;-69
2022/03/24 09:43:23;;;;;;;19.50;9.77;;;;;;;11.72;34.38;101249.25;4247860;28;20801;-67
2022/03/24 09:45:49;;;;;;;21.40;10.83;;;;;;;11.68;34.33;101250.50;4212615;28;20237;-70
2022/03/24 09:48:16;;;;;;;26.20;10.20;;;;;;;11.20;35.26;101251.88;4208256;28;21146;-68
2022/03/24 09:50:44;;;;;;;12.97;6.03;;;;;;;11.16;32.78;101249.59;4207095;28;20526;-70
2022/03/24 09:53:12;;;;;;;16.50;6.83;;;;;;;11.52;32.16;101252.78;4193425;28;20237;-73
2022/03/24 09:55:38;;;;;;;13.70;6.03;;;;;;;11.60;32.26;101253.81;4209293;28;20241;-71
2022/03/24 09:58:06;;;;;;;13.17;6.10;;;;;;;11.66;32.39;101241.81;4205487;28;20234;-68
2022/03/24 10:00:38;;;;;;;11.40;5.50;;;;;;;11.83;30.99;101254.50;4228879;28;21352;-69
2022/03/24 10:03:26;;;;;;;9.93;5.07;;;;;;;11.49;31.52;101245.06;4192052;28;20258;-68
2022/03/24 10:06:10;;;;;;;9.57;5.50;;;;;;;11.50;31.52;101250.28;4205917;28;20262;-70
2022/03/24 10:08:37;;;;;;;11.20;4.80;;;;;;;11.95;30.36;101249.13;4212760;28;20917;-69
2022/03/24 10:11:05;;;;;;;8.83;4.50;;;;;;;12.27;29.76;101256.97;4202058;28;22043;-69
2022/03/24 10:14:04;;;;;;;11.00;5.23;;;;;;;11.90;30.53;101248.69;4198425;28;20237;-68
2022/03/24 10:16:34;;;;;;;12.23;5.03;;;;;;;12.35;29.46;101253.63;4199088;28;20744;-68
2022/03/24 10:19:07;;;;;;;16.37;5.70;;;;;;;12.24;29.31;101246.56;4209417;28;20818;-68
2022/03/24 10:21:36;;;;;;;16.67;5.70;;;;;;;12.01;29.88;101248.56;4234120;28;20244;-68
2022/03/24 10:24:11;;;;;;;16.03;5.53;;;;;;;12.09;30.08;101243.44;4215652;28;25600;-69
2022/03/24 10:27:03;;;;;;;13.00;5.10;;;;;;;11.78;29.73;101243.41;4215027;28;23125;-69
2022/03/24 10:29:31;;;;;;;10.83;4.90;;;;;;;11.93;29.54;101243.06;4212441;28;20239;-71
2022/03/24 10:32:00;;;;;;;10.67;5.20;;;;;;;12.34;30.04;101241.22;4203518;28;20236;-70
2022/03/24 10:34:35;;;;;;;11.03;5.37;;;;;;;12.35;29.04;101242.94;4205541;28;20235;-69
2022/03/24 10:37:17;;;;;;;8.83;5.10;;;;;;;12.22;30.42;101243.16;4243087;28;20239;-69
2022/03/24 10:40:05;;;;;;;19.03;5.20;;;;;;;12.41;29.61;101234.41;4209775;28;23223;-71
2022/03/24 10:42:36;;;;;;;14.80;6.37;;;;;;;12.21;29.54;101241.50;4193108;28;20326;-73
2022/03/24 10:45:05;;;;;;;10.17;5.20;;;;;;;12.12;30.07;101229.81;4218862;28;20235;-69
2022/03/24 10:47:52;;;;;;;11.83;5.27;;;;;;;12.09;29.95;101230.09;4209347;28;20240;-75
2022/03/24 10:50:40;;;;;;;11.53;6.20;;;;;;;12.26;30.29;101228.59;4209279;28;20231;-70
2022/03/24 10:53:19;;;;;;;11.60;5.80;;;;;;;12.49;30.33;101228.38;4211664;28;20243;-70
2022/03/24 10:56:05;;;;;;;10.23;5.17;;;;;;;12.78;29.48;101231.06;4193068;28;20248;-73
2022/03/24 10:58:42;;;;;;;10.23;5.50;;;;;;;12.61;29.67;101217.41;4217829;28;21245;-72
2022/03/24 11:01:10;;;;;;;13.07;5.50;;;;;;;12.76;29.64;101219.66;4235461;28;20306;-72
2022/03/24 11:03:37;;;;;;;13.13;5.50;;;;;;;12.42;30.04;101223.56;4226883;28;21089;-73
2022/03/24 11:06:17;;;;;;;16.40;5.97;;;;;;;12.02;30.74;101215.59;4209049;28;20228;-72
2022/03/24 11:08:54;;;;;;;11.43;5.37;;;;;;;11.77;31.66;101209.69;4185843;28;20228;-78
2022/03/24 11:11:21;;;;;;;9.70;4.67;;;;;;;12.00;31.12;101204.22;4192918;28;20231;-70
2022/03/24 11:14:02;;;;;;;17.27;5.43;;;;;;;12.01;31.33;101200.56;4214089;28;20327;-73
2022/03/24 11:16:31;;;;;;;11.97;5.33;;;;;;;12.52;30.63;101196.03;4236175;28;20283;-70
2022/03/24 11:19:00;;;;;;;19.23;5.57;;;;;;;12.66;28.79;101196.47;4220954;28;20720;-74
2022/03/24 11:21:58;;;;;;;13.83;5.00;;;;;;;12.94;29.72;101191.25;4211837;28;20353;-69
2022/03/24 11:24:25;;;;;;;8.27;4.83;;;;;;;12.83;29.35;101194.06;4195177;28;21763;-75
2022/03/24 11:26:52;;;;;;;18.10;5.90;;;;;;;12.89;29.33;101198.88;4187338;28;20311;-75